ADDS METAR Data INFO
IDs: Format: Raw Decoded Include TAF

Data at: 1612 UTC 14 Aug 2018

K0E0 141555Z AUTO 00000KT 10SM CLR 23/10 A3019 RMK AO2 T02250099
K0E0 141535Z AUTO 00000KT 10SM CLR 21/10 A3019 RMK AO2 T02090103
K0E0 141515Z AUTO 00000KT 10SM CLR 20/11 A3018 RMK AO2 T02010113
K0E0 141455Z AUTO 00000KT 10SM CLR 19/11 A3018 RMK AO2 T01850114
K0E0 141435Z AUTO 00000KT 10SM CLR 17/12 A3018 RMK AO2 T01700118
K0E0 141415Z AUTO 00000KT 10SM CLR 16/12 A3018 RMK AO2 T01550118
K0E0 141355Z AUTO 00000KT 10SM CLR 14/12 A3017 RMK AO2 T01390120
K0E0 141335Z AUTO 00000KT 10SM CLR 13/11 A3017 RMK AO2 T01300109
K0E0 141315Z AUTO 00000KT 10SM CLR 12/11 A3017 RMK AO2 T01160105
K0E0 141255Z AUTO 36003KT 10SM CLR 11/11 A3016 RMK AO2 T01060106
K0E0 141235Z AUTO 02004KT 10SM CLR 10/10 A3016 RMK AO2 T01010100
K0E0 141215Z AUTO 00000KT 10SM CLR 10/10 A3016 RMK AO2 T01030103
K0E0 141155Z AUTO 05003KT 10SM CLR 11/11 A3015 RMK AO2 70003 T01100106 10156 20108
K0E0 141135Z AUTO 04004KT 10SM CLR 11/10 A3016 RMK AO2 T01140104
K0E0 141115Z AUTO 02003KT 10SM CLR 12/10 A3015 RMK AO2 T01160098
K0E0 141055Z AUTO 34004KT 10SM CLR 11/11 A3015 RMK AO2 T01110106
K0E0 141035Z AUTO 36003KT 10SM CLR 11/11 A3015 RMK AO2 T01100107
K0E0 141015Z AUTO 31005KT 10SM CLR 12/11 A3014 RMK AO2 T01210110
K0E0 140955Z AUTO 00000KT 10SM CLR 12/11 A3014 RMK AO2 T01210111
K0E0 140935Z AUTO 00000KT 10SM CLR 12/11 A3014 RMK AO2 T01190114
K0E0 140915Z AUTO 03003KT 10SM CLR 13/12 A3014 RMK AO2 T01270118
K0E0 140855Z AUTO 07005KT 10SM CLR 14/12 A3014 RMK AO2 T01370120
K0E0 140835Z AUTO 05004KT 10SM CLR 14/12 A3014 RMK AO2 T01350120
K0E0 140815Z AUTO 10004KT 10SM CLR 15/11 A3015 RMK AO2 T01450114
K0E0 140755Z AUTO 12006KT 10SM CLR 14/12 A3015 RMK AO2 T01370119
K0E0 140735Z AUTO 00000KT 10SM CLR 15/11 A3014 RMK AO2 LTG DSNT S T01510107
K0E0 140715Z AUTO 21003KT 10SM CLR 14/12 A3014 RMK AO2 T01400115
K0E0 140655Z AUTO 00000KT 10SM CLR 14/11 A3014 RMK AO2 T01410113
K0E0 140635Z AUTO 04003KT 10SM CLR 15/12 A3014 RMK AO2 T01500116
K0E0 140615Z AUTO 00000KT 10SM CLR 15/12 A3014 RMK AO2 T01470118
K0E0 140555Z AUTO 02004KT 10SM CLR 15/12 A3014 RMK AO2 60003 T01520120 10309 20152 403150100
K0E0 140535Z AUTO 36003KT 10SM CLR 16/12 A3014 RMK AO2 T01560121
K0E0 140515Z AUTO 03004KT 10SM CLR 16/12 A3014 RMK AO2 T01600123
K0E0 140455Z AUTO 05005KT 10SM CLR 17/12 A3013 RMK AO2 T01710121
K0E0 140435Z AUTO 01005KT 10SM CLR 18/12 A3012 RMK AO2 LTG DSNT SW T01760121
K0E0 140415Z AUTO 26007KT 10SM CLR 21/10 A3011 RMK AO2 T02070102
K0E0 140355Z AUTO 26006KT 10SM CLR 21/11 A3011 RMK AO2 T02110106
K0E0 140335Z AUTO 28006KT 10SM CLR 21/11 A3013 RMK AO2 T02100107
K0E0 140315Z AUTO 25004KT 10SM CLR 21/10 A3013 RMK AO2 T02140103
K0E0 140255Z AUTO 29011KT 10SM SCT120 21/11 A3016 RMK AO2 60003 T02120105
K0E0 140235Z AUTO 29008G19KT 10SM SCT090 OVC120 21/10 A3018 RMK AO2 LTG DSNT SE T02140104
K0E0 140215Z AUTO 32015G22KT 10SM -RA OVC100 21/11 A3019 RMK AO2 T02100108
K0E0 140155Z AUTO 34011KT 10SM SCT085 OVC110 23/10 A3016 RMK AO2 LTG DSNT SE AND SW T02320099
K0E0 140135Z AUTO 29014KT 10SM BKN110 22/12 A3014 RMK AO2 LTG DSNT NW T02210122
K0E0 140115Z AUTO 12014KT 10SM CLR 22/12 A3010 RMK AO2 LTG DSNT SW AND W T02160117
K0E0 140055Z AUTO 12015G20KT 10SM SCT008 SCT034 BKN110 21/14 A3009 RMK AO2 P0003 T02060137
K0E0 140035Z AUTO 09018G29KT 5SM -RA SCT009 BKN050 OVC100 20/13 A3010 RMK AO2 LTG DSNT E THRU SW P0003 T02000133
K0E0 140015Z AUTO 06019G23KT 10SM BKN110 28/06 A3008 RMK AO2 T02780059
K0E0 132355Z AUTO 26006KT 10SM CLR 31/06 A3005 RMK AO2 T03100063 10315 20255
K0E0 132335Z AUTO 29005KT 10SM CLR 31/06 A3005 RMK AO2 T03090060
K0E0 132315Z AUTO 23008G14KT 10SM CLR 31/06 A3005 RMK AO2 T03100062
K0E0 132255Z AUTO 24003KT 10SM CLR 31/06 A3006 RMK AO2 T03100059
K0E0 132235Z AUTO 26010KT 10SM CLR 31/06 A3006 RMK AO2 T03110062
K0E0 132215Z AUTO 24003KT 10SM CLR 30/06 A3007 RMK AO2 T03040057
K0E0 132155Z AUTO 25003G15KT 10SM CLR 31/06 A3008 RMK AO2 T03070060
K0E0 132135Z AUTO 32003KT 10SM CLR 30/07 A3008 RMK AO2 T03040069
K0E0 132115Z AUTO 29005KT 10SM CLR 31/07 A3010 RMK AO2 T03090069
K0E0 132055Z AUTO 00000KT 10SM CLR 30/07 A3010 RMK AO2 T02970067
K0E0 132035Z AUTO 28003G14KT 10SM CLR 30/08 A3012 RMK AO2 T03000076
K0E0 132015Z AUTO 28008G15KT 10SM CLR 30/08 A3012 RMK AO2 T02960078
K0E0 131955Z AUTO 30007KT 10SM CLR 29/07 A3013 RMK AO2 T02930073
K0E0 131935Z AUTO 29007KT 10SM CLR 29/08 A3014 RMK AO2 T02910079
K0E0 131915Z AUTO 31004KT 10SM CLR 29/07 A3015 RMK AO2 T02870074
K0E0 131855Z AUTO 35003KT 10SM CLR 28/09 A3016 RMK AO2 T02820092
K0E0 131835Z AUTO 20004KT 10SM CLR 27/10 A3016 RMK AO2 T02700099
K0E0 131815Z AUTO 18005KT 10SM CLR 26/11 A3017 RMK AO2 T02610105
K0E0 131755Z AUTO 00000KT 10SM CLR 25/11 A3018 RMK AO2 T02540107 10256 20102
K0E0 131735Z AUTO 00000KT 10SM CLR 25/12 A3019 RMK AO2 T02460117
K0E0 131715Z AUTO 00000KT 10SM CLR 24/12 A3019 RMK AO2 T02350115
K0E0 131655Z AUTO 00000KT 10SM CLR 23/12 A3020 RMK AO2 T02270117
K0E0 131635Z AUTO 00000KT 10SM CLR 22/12 A3021 RMK AO2 T02190119
K0E0 131615Z AUTO 00000KT 10SM CLR 21/12 A3021 RMK AO2 T02140118
K0E0 131555Z AUTO 00000KT 10SM CLR 21/12 A3021 RMK AO2 T02090122
K0E0 131535Z AUTO 19003KT 10SM CLR 20/12 A3021 RMK AO2 T02000122
K0E0 131515Z AUTO 00000KT 10SM CLR 19/13 A3022 RMK AO2 T01900125
K0E0 131455Z AUTO 14003KT 10SM CLR 18/13 A3023 RMK AO2 T01840127
K0E0 131435Z AUTO 00000KT 10SM CLR 17/13 A3023 RMK AO2 T01720126
K0E0 131415Z AUTO 00000KT 10SM CLR 17/13 A3024 RMK AO2 T01650127
K0E0 131355Z AUTO 14003KT 10SM CLR 16/13 A3024 RMK AO2 T01550130
K0E0 131335Z AUTO 00000KT 10SM CLR 15/13 A3024 RMK AO2 T01470134
K0E0 131315Z AUTO 00000KT 10SM CLR 13/13 A3023 RMK AO2 T01320131
K0E0 131255Z AUTO 12003KT 10SM CLR 11/11 A3023 RMK AO2 T01130113
K0E0 131235Z AUTO 00000KT 10SM CLR 11/11 A3023 RMK AO2 T01070107
K0E0 131215Z AUTO 10004KT 10SM CLR 10/10 A3023 RMK AO2 T01020102
K0E0 131155Z AUTO 00000KT 10SM CLR 10/10 A3023 RMK AO2 T01040104 10165 20100
K0E0 131135Z AUTO 02003KT 10SM CLR 10/10 A3023 RMK AO2 T01020102
K0E0 131115Z AUTO 00000KT 10SM CLR 11/11 A3023 RMK AO2 T01070107
K0E0 131055Z AUTO 00000KT 10SM CLR 11/11 A3023 RMK AO2 T01120112
K0E0 131035Z AUTO 01003KT 10SM CLR 11/11 A3023 RMK AO2 T01080108
K0E0 131015Z AUTO 00000KT 10SM CLR 11/11 A3024 RMK AO2 T01130113
K0E0 130955Z AUTO 00000KT 10SM CLR 12/12 A3024 RMK AO2 T01200120
K0E0 130935Z AUTO 32003KT 10SM CLR 12/12 A3024 RMK AO2 T01240124
K0E0 130915Z AUTO 00000KT 10SM CLR 14/13 A3023 RMK AO2 T01400133
K0E0 130855Z AUTO 00000KT 10SM CLR 15/13 A3024 RMK AO2 T01470133
K0E0 130835Z AUTO 13004KT 10SM CLR 15/14 A3025 RMK AO2 T01500135
K0E0 130815Z AUTO 13008KT 10SM CLR 15/14 A3024 RMK AO2 T01510136
K0E0 130755Z AUTO 14007KT 10SM CLR 16/14 A3025 RMK AO2 T01550135
K0E0 130735Z AUTO 14006KT 10SM CLR 16/14 A3025 RMK AO2 T01600135
K0E0 130715Z AUTO 14008KT 10SM CLR 16/14 A3026 RMK AO2 T01630135
K0E0 130655Z AUTO 15006KT 10SM CLR 16/14 A3027 RMK AO2 T01560137
K0E0 130635Z AUTO 15004KT 10SM CLR 15/13 A3028 RMK AO2 T01530133
K0E0 130615Z AUTO 17004KT 10SM CLR 15/12 A3028 RMK AO2 T01450120
K0E0 130555Z AUTO 20004KT 10SM CLR 15/12 A3028 RMK AO2 T01520117 10262 20152 402750080
K0E0 130535Z AUTO 20006KT 10SM CLR 16/13 A3028 RMK AO2 T01590125
K0E0 130515Z AUTO 20006KT 10SM CLR 17/13 A3028 RMK AO2 T01660125
K0E0 130455Z AUTO 16008KT 10SM CLR 19/13 A3028 RMK AO2 T01850130
K0E0 130435Z AUTO 15008KT 10SM CLR 18/11 A3027 RMK AO2 T01780111
K0E0 130415Z AUTO 20005KT 10SM CLR 18/11 A3026 RMK AO2 T01790106